Time;durP1;ratioP1;P1;durP2;ratioP2;P2;SDS_P1;SDS_P2;PMS_P1;PMS_P2;Temp;Humidity;BMP_temperature;BMP_pressure;BME280_temperature;BME280_humidity;BME280_pressure;Samples;Min_cycle;Max_cycle;Signal;HPM_P1;HPM_P2
2024/02/29 00:00:54;;;;;;;15.70;9.00;;;;;;;1.41;54.58;100555.31;78517;1296;3026119;-72
2024/02/29 00:03:21;;;;;;;19.90;8.60;;;;;;;1.33;54.88;100560.71;79784;1297;3013989;-71
2024/02/29 00:05:47;;;;;;;21.30;9.40;;;;;;;1.29;55.00;100561.08;79726;1298;3012789;-69
2024/02/29 00:08:15;;;;;;;20.40;9.10;;;;;;;1.30;55.03;100561.24;78715;1296;3027133;-69
2024/02/29 00:10:42;;;;;;;13.00;8.80;;;;;;;1.28;55.17;100558.66;79889;1293;3012890;-68
2024/02/29 00:13:09;;;;;;;18.90;10.10;;;;;;;1.27;55.33;100563.51;79804;1292;3011437;-72
2024/02/29 00:15:37;;;;;;;21.00;10.10;;;;;;;1.30;55.42;100565.23;78387;1291;3024817;-68
2024/02/29 00:18:03;;;;;;;21.90;8.30;;;;;;;1.28;55.51;100562.30;79529;1295;3013643;-71
2024/02/29 00:20:30;;;;;;;16.30;8.10;;;;;;;1.27;55.83;100560.75;79501;1295;3011398;-71
2024/02/29 00:22:58;;;;;;;12.70;7.30;;;;;;;1.25;55.89;100566.80;78409;1298;3025667;-69
2024/02/29 00:25:25;;;;;;;11.80;6.90;;;;;;;1.26;55.80;100567.14;79712;1291;3019128;-71
2024/02/29 00:27:51;;;;;;;14.70;7.20;;;;;;;1.23;56.13;100569.73;80032;1294;3011809;-73
2024/02/29 00:30:19;;;;;;;15.80;7.20;;;;;;;1.14;56.76;100566.15;78495;1296;3026650;-72
2024/02/29 00:32:46;;;;;;;14.50;6.90;;;;;;;1.11;56.93;100565.83;79708;1297;3013525;-69
2024/02/29 00:35:13;;;;;;;14.60;7.50;;;;;;;1.10;56.88;100568.42;79675;1296;3012268;-71
2024/02/29 00:37:41;;;;;;;16.60;6.70;;;;;;;1.12;56.54;100569.27;78542;1294;3069948;-68
2024/02/29 00:40:08;;;;;;;13.70;6.90;;;;;;;1.06;56.97;100563.60;79767;1292;3018538;-66
2024/02/29 00:42:35;;;;;;;13.80;6.00;;;;;;;1.04;57.04;100557.05;79892;1295;3011671;-69
2024/02/29 00:45:04;;;;;;;10.10;5.70;;;;;;;1.02;56.85;100554.13;78523;1294;3052784;-71
2024/02/29 00:47:31;;;;;;;10.50;5.30;;;;;;;0.96;57.36;100547.59;79920;1297;3013646;-73
2024/02/29 00:49:57;;;;;;;11.70;6.30;;;;;;;0.95;57.24;100548.46;79822;1297;3011563;-70
2024/02/29 00:52:25;;;;;;;17.60;6.50;;;;;;;0.89;57.57;100548.81;78434;1297;3068825;-69
2024/02/29 00:54:51;;;;;;;14.70;6.80;;;;;;;0.85;58.01;100549.88;79769;1293;3018816;-71
2024/02/29 00:57:18;;;;;;;15.60;6.20;;;;;;;0.82;57.87;100545.23;79708;1297;3011699;-76
2024/02/29 00:59:46;;;;;;;14.50;6.70;;;;;;;0.82;57.83;100545.05;78694;1293;3026272;-71
2024/02/29 01:02:12;;;;;;;10.40;5.80;;;;;;;0.82;57.80;100544.89;79828;1305;3013215;-72
2024/02/29 01:04:39;;;;;;;12.80;6.90;;;;;;;0.84;57.73;100546.43;79825;1296;3011640;-70
2024/02/29 01:07:07;;;;;;;14.90;6.80;;;;;;;0.86;57.53;100546.59;78701;1295;3025983;-73
2024/02/29 01:09:33;;;;;;;18.60;7.40;;;;;;;0.80;57.61;100547.48;80686;1292;3013070;-67
2024/02/29 01:12:00;;;;;;;15.40;7.40;;;;;;;0.79;57.79;100547.66;79854;1293;3012451;-70
2024/02/29 01:14:28;;;;;;;15.70;6.40;;;;;;;0.79;57.57;100543.00;78614;1297;3026455;-67
2024/02/29 01:16:56;;;;;;;10.20;6.20;;;;;;;0.79;57.65;100538.52;80008;1296;3013505;-73
2024/02/29 01:19:22;;;;;;;13.30;6.20;;;;;;;0.73;58.13;100542.15;79827;1296;3011588;-67
2024/02/29 01:21:50;;;;;;;14.60;6.20;;;;;;;0.70;57.81;100540.78;78594;1293;3068162;-69
2024/02/29 01:24:17;;;;;;;10.00;5.10;;;;;;;0.68;58.50;100542.52;79865;1292;3013333;-69
2024/02/29 01:26:44;;;;;;;11.40;5.20;;;;;;;0.68;58.13;100547.68;81092;1292;3011659;-70
2024/02/29 01:29:11;;;;;;;12.40;5.10;;;;;;;0.66;58.28;100543.38;80860;1292;3027022;-72
2024/02/29 01:31:38;;;;;;;9.50;5.20;;;;;;;0.60;58.70;100542.36;80640;1295;3018694;-67
2024/02/29 01:34:05;;;;;;;11.30;5.10;;;;;;;0.58;58.88;100539.61;82171;1292;3011334;-68
2024/02/29 01:36:33;;;;;;;11.60;5.60;;;;;;;0.61;58.47;100531.48;80921;1292;3026412;-73
2024/02/29 01:39:00;;;;;;;14.50;5.20;;;;;;;0.56;58.83;100526.16;79929;1296;3013062;-70
2024/02/29 01:41:26;;;;;;;9.60;5.30;;;;;;;0.49;59.07;100519.45;80129;1295;3013011;-73
2024/02/29 01:43:54;;;;;;;12.30;5.50;;;;;;;0.47;59.18;100516.52;78543;1305;3025851;-67
2024/02/29 01:46:21;;;;;;;10.10;5.00;;;;;;;0.45;59.02;100517.39;79805;1297;3018553;-71
2024/02/29 01:48:50;;;;;;;12.60;5.40;;;;;;;0.43;58.88;100519.82;79812;1298;3011731;-67
2024/02/29 01:51:18;;;;;;;14.10;5.30;;;;;;;0.41;58.75;100519.82;78492;1295;3068232;-71
2024/02/29 01:53:46;;;;;;;12.20;5.30;;;;;;;0.40;58.65;100518.80;79781;1297;3018512;-71
2024/02/29 01:56:12;;;;;;;13.50;5.10;;;;;;;0.33;59.21;100513.98;79848;1296;3013688;-71
2024/02/29 01:58:41;;;;;;;13.60;5.70;;;;;;;0.31;58.92;100518.81;78561;1297;3053531;-69
2024/02/29 02:01:08;;;;;;;10.00;5.10;;;;;;;0.29;58.91;100518.98;79700;1298;3013085;-72
2024/02/29 02:03:35;;;;;;;10.70;5.10;;;;;;;0.27;59.14;100517.94;79726;1305;3012713;-70
2024/02/29 02:06:03;;;;;;;20.20;5.50;;;;;;;0.21;59.41;100517.96;78500;1293;3070035;-70
2024/02/29 02:08:33;;;;;;;14.80;6.10;;;;;;;0.14;59.69;100517.80;79820;1291;3013794;-71
2024/02/29 02:11:01;;;;;;;10.60;4.80;;;;;;;0.16;59.54;100516.25;78527;1297;3047513;-67
2024/02/29 02:13:28;;;;;;;13.90;5.40;;;;;;;0.16;59.76;100512.11;79875;1297;3013080;-69
2024/02/29 02:15:54;;;;;;;15.70;5.50;;;;;;;0.12;60.11;100507.63;79863;1296;3013371;-67
2024/02/29 02:18:22;;;;;;;17.30;5.40;;;;;;;0.08;60.12;100514.36;78606;1295;3028773;-70
2024/02/29 02:20:49;;;;;;;11.20;4.80;;;;;;;0.05;60.51;100516.59;79832;1295;3013065;-69
2024/02/29 02:23:16;;;;;;;14.50;5.70;;;;;;;0.01;60.65;100514.53;79798;1295;3011826;-67
2024/02/29 02:25:44;;;;;;;8.80;4.80;;;;;;;-0.03;61.28;100510.23;78562;1291;3025933;-68
2024/02/29 02:28:11;;;;;;;17.30;5.20;;;;;;;-0.09;61.52;100509.20;79799;1293;3013974;-68
2024/02/29 02:30:39;;;;;;;12.00;5.10;;;;;;;-0.08;61.54;100510.41;79821;1293;3011799;-72
2024/02/29 02:33:07;;;;;;;17.20;5.40;;;;;;;-0.08;61.71;100507.48;78585;1296;3052998;-69
2024/02/29 02:35:34;;;;;;;13.60;5.10;;;;;;;-0.11;61.80;100507.64;79781;1294;3013142;-66
2024/02/29 02:38:04;;;;;;;9.80;5.30;;;;;;;-0.13;61.92;100513.86;79732;1291;3011825;-66
2024/02/29 02:40:32;;;;;;;12.50;5.50;;;;;;;-0.15;61.79;100510.23;78697;1292;3048786;-64
2024/02/29 02:43:00;;;;;;;10.20;5.40;;;;;;;-0.11;61.35;100511.77;79809;1298;3013211;-71
2024/02/29 02:45:26;;;;;;;12.10;4.70;;;;;;;-0.11;61.32;100509.54;79848;1292;3011662;-65
2024/02/29 02:47:54;;;;;;;11.60;5.70;;;;;;;-0.20;61.79;100506.98;78518;1295;3050685;-70
2024/02/29 02:50:21;;;;;;;14.60;5.20;;;;;;;-0.20;61.75;100506.79;79787;1293;3013364;-68
2024/02/29 02:52:48;;;;;;;14.80;5.50;;;;;;;-0.25;62.15;100504.89;79759;1298;3012136;-71
2024/02/29 02:55:16;;;;;;;9.90;5.30;;;;;;;-0.22;61.92;100504.89;78526;1297;3026326;-68
2024/02/29 02:57:43;;;;;;;14.50;5.10;;;;;;;-0.22;62.15;100500.23;79844;1291;3013418;-69
2024/02/29 03:00:11;;;;;;;14.80;5.40;;;;;;;-0.26;62.47;100494.39;79782;1298;3013390;-67
2024/02/29 03:02:40;;;;;;;11.10;5.10;;;;;;;-0.28;62.41;100494.91;78632;1295;3052848;-65
2024/02/29 03:05:07;;;;;;;11.50;4.90;;;;;;;-0.31;62.96;100494.39;79911;1296;3013128;-69
2024/02/29 03:07:33;;;;;;;12.30;5.10;;;;;;;-0.32;63.08;100498.35;79837;1292;3011468;-66
2024/02/29 03:10:01;;;;;;;13.00;4.70;;;;;;;-0.39;63.75;100494.37;78610;1297;3048527;-72
2024/02/29 03:12:28;;;;;;;10.30;4.80;;;;;;;-0.41;63.75;100493.01;79728;1297;3013454;-71
2024/02/29 03:14:54;;;;;;;13.10;5.60;;;;;;;-0.43;64.23;100487.15;79648;1297;3012844;-72
2024/02/29 03:17:22;;;;;;;10.70;5.90;;;;;;;-0.46;64.65;100487.66;78426;1297;3026464;-70
2024/02/29 03:19:49;;;;;;;8.90;5.50;;;;;;;-0.48;64.85;100489.38;79878;1297;3020476;-69
2024/02/29 03:22:15;;;;;;;17.80;5.90;;;;;;;-0.48;65.06;100493.33;79765;1297;3011963;-69
2024/02/29 03:24:45;;;;;;;12.90;6.50;;;;;;;-0.52;65.28;100485.59;78584;1297;3025863;-69
2024/02/29 03:27:12;;;;;;;13.80;5.80;;;;;;;-0.51;64.95;100487.83;79718;1294;3013419;-70
2024/02/29 03:29:39;;;;;;;14.60;5.10;;;;;;;-0.55;64.99;100486.96;79918;1297;3013500;-70
2024/02/29 03:32:06;;;;;;;12.60;5.60;;;;;;;-0.54;65.00;100481.64;78386;1293;3051945;-71
2024/02/29 03:34:33;;;;;;;11.40;5.80;;;;;;;-0.56;65.59;100482.66;79836;1297;3013450;-69
2024/02/29 03:37:00;;;;;;;15.90;6.60;;;;;;;-0.56;65.46;100482.67;79797;1294;3011627;-72
2024/02/29 03:39:28;;;;;;;13.00;5.80;;;;;;;-0.57;65.51;100481.98;78515;1292;3027677;-68
2024/02/29 03:41:54;;;;;;;11.70;5.90;;;;;;;-0.60;65.36;100480.23;79807;1294;3018467;-68
2024/02/29 03:44:21;;;;;;;17.10;6.30;;;;;;;-0.60;65.36;100485.59;79831;1297;3011609;-66
2024/02/29 03:46:49;;;;;;;15.40;6.50;;;;;;;-0.63;65.94;100482.83;78557;1297;3025236;-67
2024/02/29 03:49:15;;;;;;;10.10;5.50;;;;;;;-0.66;66.02;100490.40;79700;1292;3013033;-69
2024/02/29 03:51:42;;;;;;;16.50;6.90;;;;;;;-0.69;66.07;100486.44;79787;1294;3012646;-73
2024/02/29 03:54:10;;;;;;;19.20;6.10;;;;;;;-0.66;65.94;100482.31;78272;1294;3027378;-70
2024/02/29 03:56:37;;;;;;;12.00;5.70;;;;;;;-0.68;66.30;100483.16;79847;1294;3013188;-68
2024/02/29 03:59:04;;;;;;;10.70;5.50;;;;;;;-0.68;66.20;100487.12;79572;1296;3011973;-69
2024/02/29 04:05:41;;;;;;;12.80;4.90;;;;;;;-0.69;65.75;100490.90;78526;1292;3069024;-69
2024/02/29 04:08:11;;;;;;;8.70;4.90;;;;;;;-0.69;65.96;100488.15;79713;1294;3013821;-69
2024/02/29 04:10:38;;;;;;;12.00;5.20;;;;;;;-0.68;65.89;100491.94;79878;1292;3011561;-70
2024/02/29 04:13:06;;;;;;;13.00;5.90;;;;;;;-0.65;65.80;100490.73;78549;1297;3053168;-67
2024/02/29 04:15:33;;;;;;;12.30;5.40;;;;;;;-0.62;65.54;100496.94;79719;1297;3012821;-64
2024/02/29 04:18:00;;;;;;;12.60;5.80;;;;;;;-0.64;65.85;100500.03;79827;1297;3013670;-68
2024/02/29 04:20:28;;;;;;;12.10;5.20;;;;;;;-0.63;66.02;100504.34;78443;1295;3026005;-69
2024/02/29 04:22:54;;;;;;;15.70;7.00;;;;;;;-0.64;66.17;100505.20;79700;1293;3013256;-66
2024/02/29 04:25:24;;;;;;;18.50;6.50;;;;;;;-0.63;66.07;100503.32;80746;1292;3011650;-70
2024/02/29 04:27:52;;;;;;;15.00;7.10;;;;;;;-0.63;66.32;100501.08;78630;1294;3052369;-67
2024/02/29 04:30:18;;;;;;;18.80;6.90;;;;;;;-0.63;66.42;100501.94;79970;1295;3018203;-70
2024/02/29 04:32:45;;;;;;;14.80;7.90;;;;;;;-0.62;66.32;100498.84;79788;1295;3013552;-70
2024/02/29 04:35:13;;;;;;;16.00;7.20;;;;;;;-0.65;66.54;100498.66;78758;1292;3028717;-72
2024/02/29 04:37:39;;;;;;;15.60;7.00;;;;;;;-0.62;66.26;100495.39;79801;1292;3019825;-69
2024/02/29 04:40:07;;;;;;;15.50;7.80;;;;;;;-0.58;66.00;100494.20;79940;1292;3011476;-69
2024/02/29 04:42:35;;;;;;;15.70;8.10;;;;;;;-0.57;65.93;100497.12;78626;1295;3053748;-72
2024/02/29 04:45:02;;;;;;;20.30;9.20;;;;;;;-0.59;66.38;100495.91;79905;1296;3013033;-70
2024/02/29 04:47:30;;;;;;;18.20;9.60;;;;;;;-0.58;66.46;100487.48;79772;1297;3011860;-68
2024/02/29 04:49:58;;;;;;;24.50;10.30;;;;;;;-0.54;66.05;100495.08;78401;1297;3069050;-72
2024/02/29 04:52:25;;;;;;;14.70;8.90;;;;;;;-0.55;66.33;100492.13;79998;1293;3013105;-69
2024/02/29 04:54:52;;;;;;;14.60;9.90;;;;;;;-0.52;66.40;100490.93;79674;1296;3011679;-73
2024/02/29 04:57:19;;;;;;;16.80;9.40;;;;;;;-0.49;66.10;100493.17;78533;1293;3025958;-69
2024/02/29 04:59:46;;;;;;;20.90;11.10;;;;;;;-0.46;66.36;100492.30;80038;1296;3013886;-72
2024/02/29 05:02:13;;;;;;;16.80;10.40;;;;;;;-0.44;66.11;100490.25;79982;1297;3011626;-68
2024/02/29 05:04:41;;;;;;;17.30;11.70;;;;;;;-0.41;66.13;100492.33;78592;1291;3025945;-67
2024/02/29 05:07:07;;;;;;;20.70;11.20;;;;;;;-0.37;66.18;100499.03;79865;1293;3018668;-69
2024/02/29 05:09:34;;;;;;;24.90;9.30;;;;;;;-0.30;65.68;100505.41;79858;1293;3012002;-69
2024/02/29 05:12:01;;;;;;;18.80;8.50;;;;;;;-0.25;65.61;100508.52;78703;1294;3025820;-73
2024/02/29 05:14:28;;;;;;;20.70;8.50;;;;;;;-0.18;65.33;100509.20;79775;1297;3013237;-67
2024/02/29 05:16:55;;;;;;;15.60;7.60;;;;;;;-0.13;65.44;100509.88;79900;1297;3011960;-70
2024/02/29 05:19:23;;;;;;;15.40;7.30;;;;;;;-0.11;65.02;100512.13;78524;1297;3026730;-69
2024/02/29 05:21:51;;;;;;;12.70;7.20;;;;;;;-0.06;64.95;100515.56;80010;1291;3018747;-68
2024/02/29 05:24:18;;;;;;;15.00;6.60;;;;;;;0.00;64.65;100512.30;79914;1291;3011644;-71
2024/02/29 05:26:47;;;;;;;13.20;6.00;;;;;;;0.04;64.34;100514.52;78756;1297;3053076;-74
2024/02/29 05:29:13;;;;;;;13.50;5.80;;;;;;;-0.01;64.49;100509.72;79876;1294;3014712;-68
2024/02/29 05:31:40;;;;;;;9.50;5.50;;;;;;;0.02;64.39;100509.54;80272;1304;3012643;-66
2024/02/29 05:34:08;;;;;;;14.30;6.90;;;;;;;0.01;64.58;100503.51;79682;1294;3067651;-66
2024/02/29 05:36:34;;;;;;;13.50;6.60;;;;;;;0.02;64.48;100500.40;80510;1292;3019035;-69
2024/02/29 05:39:02;;;;;;;12.50;6.90;;;;;;;0.01;64.74;100501.10;79761;1297;3011899;-70
2024/02/29 05:41:30;;;;;;;15.30;7.90;;;;;;;0.04;64.57;100507.81;78535;1291;3053439;-71
2024/02/29 05:43:57;;;;;;;18.40;9.10;;;;;;;0.11;64.58;100512.46;79766;1295;3021014;-73
2024/02/29 05:46:24;;;;;;;18.00;8.90;;;;;;;0.14;64.51;100513.14;79853;1294;3011927;-71
2024/02/29 05:48:52;;;;;;;19.10;8.10;;;;;;;0.19;64.12;100514.52;78517;1292;3026114;-74
2024/02/29 05:51:18;;;;;;;13.70;7.70;;;;;;;0.24;64.33;100519.34;79758;1291;3013639;-70
2024/02/29 05:53:45;;;;;;;19.80;7.40;;;;;;;0.33;63.98;100522.60;79814;1294;3013553;-68
2024/02/29 05:56:13;;;;;;;13.70;6.30;;;;;;;0.41;63.46;100527.06;78676;1291;3028631;-72
2024/02/29 05:58:40;;;;;;;14.40;6.60;;;;;;;0.45;63.85;100524.46;79839;1291;3012921;-69
2024/02/29 06:01:06;;;;;;;13.80;5.70;;;;;;;0.51;63.39;100521.70;79908;1296;3012654;-71
2024/02/29 06:03:37;;;;;;;12.00;5.50;;;;;;;0.53;63.61;100522.20;78620;1292;3069624;-70
2024/02/29 06:06:04;;;;;;;12.40;5.90;;;;;;;0.50;63.68;100524.62;79929;1292;3011505;-69
2024/02/29 06:08:33;;;;;;;12.70;5.30;;;;;;;0.58;63.98;100526.16;79759;1291;3011655;-68
2024/02/29 06:10:59;;;;;;;14.50;5.60;;;;;;;0.66;63.43;100527.52;80226;1295;3018423;-68
2024/02/29 06:13:28;;;;;;;12.40;5.20;;;;;;;0.72;63.62;100523.02;79837;1295;3011754;-71
2024/02/29 06:15:56;;;;;;;8.40;4.70;;;;;;;0.82;63.09;100519.19;78580;1294;3053936;-69
2024/02/29 06:18:22;;;;;;;15.80;5.30;;;;;;;0.90;62.90;100520.36;79681;1293;3012774;-71
2024/02/29 06:20:49;;;;;;;16.50;6.90;;;;;;;1.02;62.75;100521.00;80181;1292;3011803;-71
2024/02/29 06:23:17;;;;;;;16.10;6.60;;;;;;;1.10;62.17;100524.91;78541;1296;3028055;-71
2024/02/29 06:25:44;;;;;;;12.90;6.90;;;;;;;1.17;62.40;100530.08;79757;1293;3013335;-71
2024/02/29 06:28:10;;;;;;;14.40;6.70;;;;;;;1.20;61.77;100530.23;80052;1292;3011223;-68
2024/02/29 06:30:38;;;;;;;18.50;6.30;;;;;;;1.25;62.03;100531.23;79051;1294;3029233;-72
2024/02/29 06:33:05;;;;;;;20.00;6.40;;;;;;;1.32;62.02;100536.38;79709;1292;3013443;-72
2024/02/29 06:35:31;;;;;;;15.40;6.50;;;;;;;1.37;61.71;100539.46;79757;1295;3011286;-69
2024/02/29 06:37:59;;;;;;;19.10;7.60;;;;;;;1.43;61.52;100535.79;78464;1295;3026660;-73
2024/02/29 06:40:26;;;;;;;15.80;5.90;;;;;;;1.50;61.59;100533.69;79857;1292;3018861;-70
2024/02/29 06:42:52;;;;;;;15.70;6.40;;;;;;;1.51;61.37;100531.44;80015;1297;3011562;-69
2024/02/29 06:45:21;;;;;;;14.40;6.20;;;;;;;1.59;61.27;100534.83;78527;1296;3025737;-70
2024/02/29 06:47:48;;;;;;;12.20;5.60;;;;;;;1.73;61.08;100537.16;80091;1297;3012598;-72
2024/02/29 06:50:14;;;;;;;15.10;6.10;;;;;;;1.84;60.54;100537.25;80001;1293;3011624;-72
2024/02/29 06:52:44;;;;;;;11.50;5.60;;;;;;;1.93;60.40;100539.77;78645;1296;3056098;-70
2024/02/29 06:55:11;;;;;;;14.00;4.40;;;;;;;2.02;60.09;100537.98;79864;1291;3012973;-67
2024/02/29 06:57:38;;;;;;;12.20;4.40;;;;;;;2.09;59.67;100540.50;80274;1291;3013127;-70
2024/02/29 07:00:08;;;;;;;13.40;5.50;;;;;;;2.18;59.33;100542.49;79080;1293;3051426;-71
2024/02/29 07:02:37;;;;;;;13.60;5.70;;;;;;;2.25;59.26;100537.94;79987;1295;3011637;-67
2024/02/29 07:05:05;;;;;;;15.80;6.60;;;;;;;2.39;59.20;100538.66;78671;1292;3068768;-71
2024/02/29 07:07:32;;;;;;;15.40;6.70;;;;;;;2.45;58.71;100536.36;79965;1291;3012808;-69
2024/02/29 07:09:58;;;;;;;15.50;6.80;;;;;;;2.51;58.86;100536.81;79740;1292;3011577;-69
2024/02/29 07:12:26;;;;;;;15.80;6.80;;;;;;;2.58;58.28;100532.59;78646;1294;3052019;-71
2024/02/29 07:14:53;;;;;;;20.70;7.70;;;;;;;2.64;58.35;100534.61;80209;1297;3018847;-69
2024/02/29 07:17:20;;;;;;;16.20;7.30;;;;;;;2.74;57.93;100533.47;79760;1297;3012982;-72
2024/02/29 07:19:48;;;;;;;17.90;6.50;;;;;;;2.82;58.07;100531.11;78763;1297;3068288;-76
2024/02/29 07:22:15;;;;;;;14.00;6.30;;;;;;;2.90;57.81;100531.72;79970;1291;3018830;-69
2024/02/29 07:24:41;;;;;;;15.60;6.60;;;;;;;2.98;57.57;100530.40;79825;1297;3011817;-75
2024/02/29 07:27:10;;;;;;;11.90;6.50;;;;;;;3.07;57.45;100530.63;78897;1293;3026205;-69
2024/02/29 07:29:36;;;;;;;16.70;7.90;;;;;;;3.18;56.87;100525.30;80069;1297;3013361;-67
2024/02/29 07:32:03;;;;;;;19.00;7.10;;;;;;;3.25;56.80;100529.54;79988;1297;3011486;-71
2024/02/29 07:34:34;;;;;;;16.30;6.40;;;;;;;3.35;56.64;100528.20;78757;1294;3069011;-67
2024/02/29 07:37:01;;;;;;;17.80;7.20;;;;;;;3.47;56.34;100530.97;79870;1291;3011655;-68
2024/02/29 07:39:30;;;;;;;15.40;7.30;;;;;;;3.56;56.05;100530.84;79285;1293;3011599;-71
2024/02/29 07:41:57;;;;;;;14.60;6.40;;;;;;;3.51;55.86;100526.58;80537;1293;3013307;-68
2024/02/29 07:44:24;;;;;;;16.30;6.20;;;;;;;3.66;55.81;100530.52;79780;1296;3011741;-67
2024/02/29 07:46:53;;;;;;;10.20;6.20;;;;;;;3.70;55.27;100528.02;79358;1292;3052140;-68
2024/02/29 07:49:19;;;;;;;15.10;5.70;;;;;;;3.73;55.04;100525.39;81138;1295;3018566;-65
2024/02/29 07:51:46;;;;;;;18.40;5.40;;;;;;;3.81;54.90;100527.34;80674;1292;3011452;-64
2024/02/29 07:54:14;;;;;;;15.90;5.80;;;;;;;3.93;54.68;100525.59;78647;1291;3026239;-69
2024/02/29 07:56:41;;;;;;;10.90;5.90;;;;;;;4.02;54.51;100524.06;79977;1295;3015337;-69
2024/02/29 07:59:09;;;;;;;14.30;6.70;;;;;;;4.05;54.20;100522.98;79953;1292;3011858;-69
2024/02/29 08:01:38;;;;;;;17.60;6.30;;;;;;;4.17;53.89;100516.33;78619;1297;3052475;-69
2024/02/29 08:04:05;;;;;;;13.40;7.10;;;;;;;4.29;53.71;100516.64;79753;1297;3014316;-72
2024/02/29 08:06:32;;;;;;;12.40;5.50;;;;;;;4.31;53.21;100518.17;79743;1292;3011572;-68
2024/02/29 08:08:59;;;;;;;15.70;5.30;;;;;;;4.40;53.35;100518.54;78694;1291;3057182;-68
2024/02/29 08:11:26;;;;;;;17.50;7.50;;;;;;;4.47;52.87;100517.36;79802;1293;3014708;-74
2024/02/29 08:13:53;;;;;;;21.40;7.80;;;;;;;4.48;52.84;100517.35;79748;1293;3013839;-70
2024/02/29 08:16:21;;;;;;;15.20;6.80;;;;;;;4.62;52.96;100520.90;78680;1297;3026526;-70
2024/02/29 08:18:47;;;;;;;16.80;6.30;;;;;;;4.43;53.01;100520.21;79889;1292;3018434;-69
2024/02/29 08:21:14;;;;;;;16.60;6.00;;;;;;;4.67;52.78;100513.35;79796;1297;3011883;-71
2024/02/29 08:23:42;;;;;;;25.40;7.20;;;;;;;4.83;52.22;100514.24;78540;1291;3026837;-69
2024/02/29 08:26:09;;;;;;;27.30;6.90;;;;;;;4.91;51.91;100519.30;79749;1294;3013926;-66
2024/02/29 08:28:37;;;;;;;23.60;6.80;;;;;;;4.94;51.63;100515.06;79859;1293;3011482;-67
2024/02/29 08:31:06;;;;;;;29.80;8.00;;;;;;;4.95;51.90;100514.67;78949;1296;3052468;-73
2024/02/29 08:33:32;;;;;;;24.90;8.40;;;;;;;5.09;51.80;100515.27;79988;1291;3013576;-68
2024/02/29 08:35:59;;;;;;;22.30;7.80;;;;;;;5.27;51.13;100517.68;79785;1295;3011810;-73
2024/02/29 08:38:27;;;;;;;22.10;8.00;;;;;;;5.39;50.68;100516.36;78799;1293;3026165;-75
2024/02/29 08:40:54;;;;;;;27.80;7.70;;;;;;;5.49;50.40;100514.90;80107;1291;3013680;-71
2024/02/29 08:43:21;;;;;;;26.40;7.10;;;;;;;5.52;50.13;100510.14;79854;1292;3011666;-67
2024/02/29 08:45:49;;;;;;;33.00;7.00;;;;;;;5.59;49.87;100506.70;78666;1297;3026324;-71
2024/02/29 08:48:16;;;;;;;26.50;6.80;;;;;;;5.67;49.69;100503.20;79823;1297;3013978;-70
2024/02/29 08:50:43;;;;;;;26.00;7.60;;;;;;;5.64;49.62;100506.92;79927;1292;3011583;-71
2024/02/29 08:53:11;;;;;;;19.70;6.60;;;;;;;5.64;49.57;100507.44;78589;1291;3056122;-71
2024/02/29 08:55:37;;;;;;;21.60;6.60;;;;;;;5.75;49.61;100503.88;79769;1291;3019257;-71
2024/02/29 08:58:04;;;;;;;24.10;6.30;;;;;;;5.76;49.52;100499.33;79781;1296;3011870;-70
2024/02/29 09:00:33;;;;;;;20.10;6.40;;;;;;;5.95;49.29;100496.80;78641;1296;3026183;-69
2024/02/29 09:02:59;;;;;;;25.10;6.30;;;;;;;6.08;48.92;100491.79;79774;1294;3014969;-73
2024/02/29 09:05:26;;;;;;;15.50;6.30;;;;;;;6.17;48.19;100498.86;79776;1292;3013326;-68
2024/02/29 09:07:54;;;;;;;22.30;6.60;;;;;;;6.09;48.19;100494.37;78514;1292;3054889;-67
2024/02/29 09:10:21;;;;;;;21.30;6.20;;;;;;;6.21;48.24;100497.03;79826;1295;3012917;-72
2024/02/29 09:12:48;;;;;;;20.10;6.40;;;;;;;6.34;48.20;100495.64;79859;1291;3011566;-73
2024/02/29 09:15:16;;;;;;;18.50;6.00;;;;;;;6.54;47.86;100497.89;78513;1296;3052724;-71
2024/02/29 09:17:42;;;;;;;17.40;5.70;;;;;;;6.64;47.29;100492.56;80061;1292;3013075;-70
2024/02/29 09:20:10;;;;;;;18.40;6.30;;;;;;;6.78;47.33;100495.29;79959;1293;3013152;-69
2024/02/29 09:22:38;;;;;;;14.00;6.20;;;;;;;6.86;46.82;100492.13;78547;1294;3056197;-70
2024/02/29 09:25:06;;;;;;;22.50;5.80;;;;;;;6.91;46.68;100489.52;79773;1291;3013799;-71
2024/02/29 09:27:34;;;;;;;16.00;5.70;;;;;;;6.87;46.40;100483.37;79890;1291;3011585;-73
2024/02/29 09:30:02;;;;;;;12.60;6.00;;;;;;;6.98;46.62;100481.16;78857;1295;3053353;-69
2024/02/29 09:32:30;;;;;;;23.70;6.90;;;;;;;7.04;46.04;100476.26;80052;1295;3012979;-72
2024/02/29 09:34:57;;;;;;;21.20;5.90;;;;;;;7.12;45.78;100474.27;79990;1297;3011585;-75
2024/02/29 09:37:25;;;;;;;16.60;5.70;;;;;;;7.22;45.48;100471.89;78527;1292;3056454;-73
2024/02/29 09:39:52;;;;;;;15.80;5.50;;;;;;;7.43;45.22;100472.46;79813;1296;3013083;-73
2024/02/29 09:42:19;;;;;;;20.30;5.40;;;;;;;7.50;44.84;100467.19;79653;1296;3011838;-72
2024/02/29 09:44:47;;;;;;;13.50;5.60;;;;;;;7.56;44.85;100465.23;78420;1296;3027713;-72
2024/02/29 09:47:19;;;;;;;26.00;6.60;;;;;;;7.67;44.79;100463.50;79473;1300;3014077;-72
2024/02/29 09:49:47;;;;;;;27.30;5.80;;;;;;;7.73;44.30;100457.71;78525;1294;3051600;-72
2024/02/29 09:52:20;;;;;;;29.40;5.90;;;;;;;7.86;44.22;100452.39;79620;1291;3013144;-74
2024/02/29 09:54:48;;;;;;;18.80;5.10;;;;;;;7.95;44.23;100452.27;78514;1294;3053606;-70
2024/02/29 09:57:15;;;;;;;20.10;5.60;;;;;;;8.06;43.96;100452.27;79754;1297;3018395;-73
2024/02/29 09:59:45;;;;;;;31.70;6.10;;;;;;;8.12;43.90;100453.26;79728;1297;3011918;-71
2024/02/29 10:02:16;;;;;;;23.10;6.30;;;;;;;8.15;43.31;100453.19;78384;1297;3068558;-73
2024/02/29 10:04:43;;;;;;;25.10;6.10;;;;;;;8.23;43.20;100450.95;79555;1296;3011615;-74
2024/02/29 10:07:13;;;;;;;32.10;5.60;;;;;;;8.36;43.19;100447.19;79144;1291;3013032;-70
2024/02/29 10:09:41;;;;;;;29.90;6.10;;;;;;;8.50;42.82;100450.55;79636;1291;3013536;-73
2024/02/29 10:12:07;;;;;;;32.80;6.30;;;;;;;8.64;42.68;100444.13;79695;1291;3011610;-71
2024/02/29 10:14:36;;;;;;;34.80;5.60;;;;;;;8.63;42.41;100443.98;78427;1293;3051567;-71
2024/02/29 10:17:04;;;;;;;36.00;5.80;;;;;;;8.65;42.10;100444.06;79737;1296;3012916;-71
2024/02/29 10:19:37;;;;;;;29.60;5.50;;;;;;;8.78;41.74;100436.06;79405;1294;3011644;-71
2024/02/29 10:22:04;;;;;;;30.20;5.50;;;;;;;8.92;41.55;100431.20;79791;1291;3013201;-70
2024/02/29 10:24:33;;;;;;;27.30;5.50;;;;;;;9.01;41.46;100427.71;79339;1296;3011680;-73
2024/02/29 10:27:02;;;;;;;17.20;5.00;;;;;;;9.10;41.25;100427.70;79790;1291;3019262;-71
2024/02/29 10:29:31;;;;;;;22.70;5.20;;;;;;;9.21;40.88;100432.69;79897;1291;3011672;-73
2024/02/29 10:31:59;;;;;;;23.80;6.10;;;;;;;9.31;40.85;100430.55;78832;1297;3051795;-70
2024/02/29 10:34:25;;;;;;;23.50;5.40;;;;;;;9.37;40.83;100432.23;79806;1293;3013720;-71
2024/02/29 10:36:52;;;;;;;20.00;5.50;;;;;;;9.38;40.63;100427.45;79779;1296;3011462;-72
2024/02/29 10:39:20;;;;;;;16.70;5.80;;;;;;;9.49;40.61;100422.68;78739;1291;3026872;-72
2024/02/29 10:41:50;;;;;;;19.70;5.30;;;;;;;9.49;40.69;100426.69;79683;1291;3013355;-70
2024/02/29 10:44:20;;;;;;;14.90;4.60;;;;;;;9.58;40.20;100421.91;79533;1294;3011965;-73
2024/02/29 10:46:50;;;;;;;17.40;4.60;;;;;;;9.61;40.28;100419.70;79913;1294;3013582;-73
2024/02/29 10:49:33;;;;;;;11.80;4.50;;;;;;;9.65;40.11;100415.67;78414;1294;3051938;-72
2024/02/29 10:52:09;;;;;;;;;;;;;;;9.69;39.89;100413.60;78525;1292;3068032;-73
2024/02/29 10:54:39;;;;;;;14.80;5.80;;;;;;;9.73;39.78;100412.06;78581;1292;3050820;-71
2024/02/29 10:57:14;;;;;;;20.50;6.40;;;;;;;9.82;39.29;100407.65;79795;1294;3011961;-72
2024/02/29 10:59:46;;;;;;;11.70;4.50;;;;;;;9.90;39.01;100411.34;79119;1294;3048735;-72
2024/02/29 11:02:13;;;;;;;12.30;4.60;;;;;;;10.06;38.62;100405.23;80081;1293;3013704;-73
2024/02/29 11:04:42;;;;;;;21.90;5.10;;;;;;;10.15;38.69;100397.82;78373;1299;3026701;-72
2024/02/29 11:07:09;;;;;;;16.20;5.20;;;;;;;10.03;38.73;100397.64;79801;1297;3013829;-71
2024/02/29 11:09:36;;;;;;;15.70;4.60;;;;;;;10.14;38.50;100393.30;79769;1294;3011832;-72
2024/02/29 11:12:11;;;;;;;9.80;4.00;;;;;;;10.29;38.11;100391.77;78595;1292;3050080;-73